createdAt,value
2022-10-16T00:00:46.084Z,57.43
2022-10-16T00:03:13.938Z,57.22
2022-10-16T00:05:42.051Z,57.20
2022-10-16T00:08:09.997Z,57.43
2022-10-16T00:10:37.698Z,57.35
2022-10-16T00:13:05.527Z,57.39
2022-10-16T00:15:37.048Z,57.59
2022-10-16T00:18:06.154Z,57.84
2022-10-16T00:20:35.846Z,57.80
2022-10-16T00:23:04.164Z,57.82
2022-10-16T00:25:33.546Z,57.61
2022-10-16T00:28:01.395Z,57.77
2022-10-16T00:30:29.906Z,57.68
2022-10-16T00:32:57.890Z,57.86
2022-10-16T00:35:27.061Z,57.90
2022-10-16T00:37:54.640Z,57.86
2022-10-16T00:40:22.389Z,57.85
2022-10-16T00:42:50.028Z,57.97
2022-10-16T00:45:18.143Z,57.74
2022-10-16T00:47:48.184Z,58.17
2022-10-16T00:50:18.613Z,57.89
2022-10-16T00:52:48.675Z,58.01
2022-10-16T00:55:16.378Z,57.97
2022-10-16T00:57:44.050Z,57.98
2022-10-16T01:00:14.024Z,58.29
2022-10-16T01:02:41.587Z,58.17
2022-10-16T01:05:10.303Z,58.23
2022-10-16T01:07:42.171Z,58.34
2022-10-16T01:10:16.341Z,58.73
2022-10-16T01:12:47.132Z,58.60
2022-10-16T01:15:19.828Z,58.90
2022-10-16T01:17:49.205Z,58.59
2022-10-16T01:20:23.048Z,58.60
2022-10-16T01:23:00.209Z,58.66
2022-10-16T01:25:33.855Z,58.73
2022-10-16T01:28:02.835Z,58.64
2022-10-16T01:30:32.511Z,58.71
2022-10-16T01:33:02.723Z,58.75
2022-10-16T01:35:31.854Z,58.56
2022-10-16T01:38:03.149Z,58.91
2022-10-16T01:40:30.735Z,58.45
2022-10-16T01:43:00.799Z,58.51
2022-10-16T01:45:32.402Z,58.61
2022-10-16T01:47:59.995Z,58.74
2022-10-16T01:50:27.748Z,58.48
2022-10-16T01:52:55.322Z,58.62
2022-10-16T01:55:25.197Z,58.52
2022-10-16T01:57:52.873Z,58.48
2022-10-16T02:00:21.220Z,58.81
2022-10-16T02:02:51.534Z,58.70
2022-10-16T02:05:22.178Z,58.83
2022-10-16T02:07:49.775Z,59.01
2022-10-16T02:10:17.741Z,58.88
2022-10-16T02:12:47.774Z,59.00
2022-10-16T02:15:15.545Z,58.78
2022-10-16T02:17:43.198Z,58.99
2022-10-16T02:20:12.498Z,59.15
2022-10-16T02:22:41.843Z,59.09
2022-10-16T02:25:11.904Z,59.03
2022-10-16T02:27:42.494Z,58.78
2022-10-16T02:30:14.163Z,59.20
2022-10-16T02:32:43.013Z,58.83
2022-10-16T02:35:12.157Z,59.09
2022-10-16T02:37:39.935Z,58.89
2022-10-16T02:40:09.232Z,58.77
2022-10-16T02:42:37.121Z,58.87
2022-10-16T02:45:05.366Z,58.73
2022-10-16T02:47:32.988Z,58.59
2022-10-16T02:50:00.738Z,58.42
2022-10-16T02:52:29.938Z,58.46
2022-10-16T02:54:57.794Z,58.61
2022-10-16T02:57:25.631Z,58.55
2022-10-16T02:59:53.581Z,58.51
2022-10-16T03:02:21.201Z,58.51
2022-10-16T03:04:48.998Z,58.59
2022-10-16T03:07:16.572Z,58.64
2022-10-16T03:09:45.649Z,58.51
2022-10-16T03:12:13.909Z,58.44
2022-10-16T03:14:41.812Z,58.28
2022-10-16T03:17:09.413Z,58.46
2022-10-16T03:19:37.560Z,58.54
2022-10-16T03:22:05.140Z,58.58
2022-10-16T03:24:33.060Z,58.57
2022-10-16T03:27:02.159Z,58.53
2022-10-16T03:29:30.352Z,58.43
2022-10-16T03:31:58.259Z,58.72
2022-10-16T03:34:26.484Z,58.77
2022-10-16T03:36:54.090Z,58.56
2022-10-16T03:39:21.777Z,58.72
2022-10-16T03:41:49.333Z,58.57
2022-10-16T03:44:18.615Z,58.62
2022-10-16T03:46:46.242Z,58.58
2022-10-16T03:49:13.926Z,58.12
2022-10-16T03:51:41.577Z,58.28
2022-10-16T03:54:09.199Z,58.08
2022-10-16T03:56:36.937Z,57.95
2022-10-16T03:59:08.751Z,57.73
2022-10-16T04:01:37.794Z,57.84
2022-10-16T04:04:05.549Z,57.91
2022-10-16T04:06:33.257Z,57.46
2022-10-16T04:09:00.813Z,57.49
2022-10-16T04:11:28.574Z,57.71
2022-10-16T04:13:56.272Z,57.58
2022-10-16T04:16:23.934Z,57.78
2022-10-16T04:18:52.865Z,57.69
2022-10-16T04:21:20.656Z,57.71
2022-10-16T04:23:48.290Z,57.79
2022-10-16T04:26:15.916Z,57.72
2022-10-16T04:28:43.666Z,58.06
2022-10-16T04:33:45.790Z,58.18
2022-10-16T04:36:14.768Z,58.42
2022-10-16T04:38:42.401Z,58.34
2022-10-16T04:41:09.989Z,58.53
2022-10-16T04:43:37.659Z,58.64
2022-10-16T04:46:05.678Z,58.92
2022-10-16T04:48:33.424Z,58.95
2022-10-16T04:51:01.144Z,58.92
2022-10-16T04:53:30.369Z,59.29
2022-10-16T04:55:58.225Z,59.19
2022-10-16T04:58:25.786Z,59.38
2022-10-16T05:00:53.442Z,59.45
2022-10-16T05:03:21.143Z,59.48
2022-10-16T05:05:49.008Z,59.35
2022-10-16T05:08:16.938Z,59.64
2022-10-16T05:10:46.061Z,59.71
2022-10-16T05:13:13.911Z,59.58
2022-10-16T05:15:41.707Z,59.71
2022-10-16T05:18:10.284Z,59.88
2022-10-16T05:20:37.980Z,59.67
2022-10-16T05:23:05.565Z,59.87
2022-10-16T05:25:33.339Z,59.93
2022-10-16T05:28:02.232Z,60.13
2022-10-16T05:30:29.972Z,60.09
2022-10-16T05:32:57.606Z,60.13
2022-10-16T05:35:25.280Z,60.06
2022-10-16T05:37:52.928Z,60.18
2022-10-16T05:40:20.545Z,60.27
2022-10-16T05:42:48.234Z,60.40
2022-10-16T05:45:17.345Z,60.25
2022-10-16T05:47:44.914Z,60.30
2022-10-16T05:50:12.662Z,60.41
2022-10-16T05:52:40.244Z,60.52
2022-10-16T05:55:08.722Z,60.49
2022-10-16T05:57:36.304Z,60.52
2022-10-16T06:00:04.277Z,60.61
2022-10-16T06:02:33.466Z,60.49
2022-10-16T06:05:01.145Z,60.42
2022-10-16T06:07:29.197Z,60.37
2022-10-16T06:09:57.084Z,60.33
2022-10-16T06:12:24.709Z,60.35
2022-10-16T06:14:52.461Z,60.30
2022-10-16T06:17:20.021Z,60.23
2022-10-16T06:19:49.078Z,60.24
2022-10-16T06:22:17.048Z,60.28
2022-10-16T06:24:44.798Z,60.20
2022-10-16T06:27:12.460Z,60.00
2022-10-16T06:29:40.178Z,60.17
2022-10-16T06:32:07.807Z,59.80
2022-10-16T06:34:35.450Z,59.63
2022-10-16T06:37:04.481Z,59.31
2022-10-16T06:39:32.059Z,59.32
2022-10-16T06:44:28.296Z,59.10
2022-10-16T06:46:55.960Z,58.80
2022-10-16T06:49:23.936Z,57.77
2022-10-16T06:51:51.625Z,56.98
2022-10-16T06:54:20.524Z,55.99
2022-10-16T06:56:48.260Z,55.05
2022-10-16T06:59:16.204Z,54.83
2022-10-16T07:01:45.898Z,54.71
2022-10-16T07:04:13.556Z,54.62
2022-10-16T07:06:41.420Z,54.70
2022-10-16T07:09:10.413Z,54.33
2022-10-16T07:11:39.796Z,54.81
2022-10-16T07:14:07.448Z,54.52
2022-10-16T07:16:35.124Z,54.56
2022-10-16T07:19:03.708Z,54.54
2022-10-16T07:21:32.382Z,54.42
2022-10-16T07:24:01.971Z,54.14
2022-10-16T07:26:31.140Z,54.81
2022-10-16T07:29:00.332Z,54.47
2022-10-16T07:31:28.114Z,54.80
2022-10-16T07:33:55.947Z,54.65
2022-10-16T07:36:23.797Z,52.96
2022-10-16T07:38:54.048Z,52.13
2022-10-16T07:41:25.067Z,51.92
2022-10-16T07:43:53.637Z,50.85
2022-10-16T07:46:23.724Z,50.50
2022-10-16T07:48:51.332Z,50.29
2022-10-16T07:51:21.054Z,50.41
2022-10-16T07:53:48.792Z,50.85
2022-10-16T07:56:17.681Z,50.38
2022-10-16T07:58:45.392Z,50.57
2022-10-16T08:01:14.035Z,48.57
2022-10-16T08:03:47.188Z,47.07
2022-10-16T08:06:15.163Z,45.09
2022-10-16T08:08:44.136Z,43.92
2022-10-16T08:11:12.401Z,40.77
2022-10-16T08:13:53.731Z,39.08
2022-10-16T08:16:24.607Z,38.05
2022-10-16T08:18:54.576Z,37.74
2022-10-16T08:21:24.233Z,36.28
2022-10-16T08:23:57.075Z,34.23
2022-10-16T08:26:27.693Z,32.87
2022-10-16T08:28:59.544Z,32.27
2022-10-16T08:31:35.021Z,30.63
2022-10-16T08:34:06.348Z,29.87
2022-10-16T08:36:41.333Z,28.20
2022-10-16T08:39:28.821Z,27.95
2022-10-16T08:42:22.151Z,27.58
2022-10-16T08:45:10.833Z,26.67
2022-10-16T08:47:48.656Z,25.99
2022-10-16T08:50:22.488Z,25.61
2022-10-16T08:52:50.262Z,25.03
2022-10-16T08:55:23.391Z,24.00
2022-10-16T08:57:51.422Z,23.65
2022-10-16T09:00:19.568Z,22.20
2022-10-16T09:02:50.855Z,22.89
2022-10-16T09:05:27.834Z,22.91
2022-10-16T09:10:38.686Z,21.74
2022-10-16T09:13:13.667Z,21.20
2022-10-16T09:15:42.372Z,20.56
2022-10-16T09:18:14.411Z,19.90
2022-10-16T09:20:49.424Z,20.03
2022-10-16T09:23:18.836Z,20.19
2022-10-16T09:25:48.683Z,19.62
2022-10-16T09:28:24.438Z,18.81
2022-10-16T09:30:52.216Z,18.11
2022-10-16T09:33:20.971Z,18.40
2022-10-16T09:36:04.161Z,18.15
2022-10-16T09:38:32.570Z,18.20
2022-10-16T09:41:03.173Z,17.37
2022-10-16T09:43:36.125Z,16.54
2022-10-16T09:46:04.766Z,16.49
2022-10-16T09:48:35.874Z,16.36
2022-10-16T09:51:06.549Z,17.02
2022-10-16T09:53:42.061Z,16.26
2022-10-16T09:56:14.563Z,16.19
2022-10-16T09:58:46.293Z,16.11
2022-10-16T10:01:15.472Z,16.22
2022-10-16T10:03:44.825Z,15.84
2022-10-16T10:06:22.841Z,15.76
2022-10-16T10:08:58.162Z,16.77
2022-10-16T10:11:45.794Z,16.85
2022-10-16T10:14:25.146Z,17.28
2022-10-16T10:16:53.173Z,17.01
2022-10-16T10:19:21.902Z,17.23
2022-10-16T10:21:51.012Z,17.36
2022-10-16T10:24:19.495Z,17.60
2022-10-16T10:26:51.236Z,18.36
2022-10-16T10:29:25.088Z,17.54
2022-10-16T10:31:55.782Z,17.63
2022-10-16T10:34:33.220Z,17.13
2022-10-16T10:37:05.180Z,17.00
2022-10-16T10:39:34.724Z,17.34
2022-10-16T10:42:15.188Z,18.54
2022-10-16T10:45:21.340Z,19.30
2022-10-16T10:47:54.299Z,20.84
2022-10-16T10:50:25.390Z,20.79
2022-10-16T10:53:00.706Z,20.26
2022-10-16T10:55:33.695Z,19.96
2022-10-16T10:58:38.258Z,19.10
2022-10-16T11:04:08.832Z,17.40
2022-10-16T11:06:37.808Z,17.15
2022-10-16T11:09:11.700Z,16.75
2022-10-16T11:11:42.279Z,16.37
2022-10-16T11:14:15.671Z,15.92
2022-10-16T11:16:45.650Z,15.77
2022-10-16T11:19:16.427Z,14.76
2022-10-16T11:21:49.515Z,14.79
2022-10-16T11:24:20.936Z,13.45
2022-10-16T11:26:48.665Z,13.78
2022-10-16T11:29:20.621Z,13.08
2022-10-16T11:31:49.874Z,13.09
2022-10-16T11:34:21.418Z,11.92
2022-10-16T11:36:50.727Z,11.56
2022-10-16T11:39:23.716Z,11.14
2022-10-16T11:41:52.721Z,10.00
2022-10-16T11:44:34.539Z,10.43
2022-10-16T11:47:33.887Z,11.34
2022-10-16T11:50:00.583Z,12.15
2022-10-16T11:52:30.682Z,13.31
2022-10-16T11:55:01.572Z,14.18
2022-10-16T11:57:31.493Z,13.56
2022-10-16T12:00:00.602Z,12.62
2022-10-16T12:02:33.376Z,13.51
2022-10-16T12:05:07.396Z,14.38
2022-10-16T12:07:36.860Z,15.51
2022-10-16T12:10:13.548Z,16.48
2022-10-16T12:12:42.384Z,17.54
2022-10-16T12:15:40.491Z,18.98
2022-10-16T12:18:20.950Z,19.48
2022-10-16T12:20:59.790Z,20.22
2022-10-16T12:23:27.463Z,20.95
2022-10-16T12:25:57.812Z,21.29
2022-10-16T12:28:28.747Z,22.26
2022-10-16T12:30:57.775Z,22.38
2022-10-16T12:33:27.672Z,23.50
2022-10-16T12:35:55.659Z,23.66
2022-10-16T12:38:24.416Z,24.24
2022-10-16T12:41:00.954Z,25.38
2022-10-16T12:43:36.671Z,25.20
2022-10-16T12:46:06.420Z,26.69
2022-10-16T12:48:48.338Z,27.08
2022-10-16T12:51:25.591Z,28.18
2022-10-16T12:54:03.214Z,27.93
2022-10-16T12:59:14.375Z,28.09
2022-10-16T13:01:45.408Z,28.72
2022-10-16T13:04:26.187Z,28.79
2022-10-16T13:06:55.605Z,29.18
2022-10-16T13:09:42.976Z,29.36
2022-10-16T13:12:19.216Z,29.76
2022-10-16T13:15:00.346Z,30.28
2022-10-16T13:17:30.675Z,30.44
2022-10-16T13:20:04.560Z,30.36
2022-10-16T13:22:34.280Z,29.83
2022-10-16T13:25:13.174Z,30.46
2022-10-16T13:27:46.085Z,30.24
2022-10-16T13:30:16.019Z,30.46
2022-10-16T13:32:46.833Z,30.83
2022-10-16T13:35:21.663Z,29.87
2022-10-16T13:37:49.786Z,30.76
2022-10-16T13:40:21.713Z,30.40
2022-10-16T13:42:50.737Z,30.14
2022-10-16T13:45:21.825Z,30.95
2022-10-16T13:47:49.578Z,30.87
2022-10-16T13:50:30.811Z,31.10
2022-10-16T13:53:06.487Z,30.45
2022-10-16T13:55:34.167Z,30.79
2022-10-16T13:58:10.627Z,30.76
2022-10-16T14:03:07.292Z,30.89
2022-10-16T14:05:43.866Z,30.75
2022-10-16T14:08:14.757Z,31.58
2022-10-16T14:10:45.188Z,31.68
2022-10-16T14:13:22.452Z,31.75
2022-10-16T14:16:17.728Z,32.33
2022-10-16T14:18:47.860Z,32.27
2022-10-16T14:21:16.480Z,32.26
2022-10-16T14:23:44.239Z,32.53
2022-10-16T14:26:16.419Z,32.56
2022-10-16T14:28:45.752Z,33.07
2022-10-16T14:31:32.012Z,33.20
2022-10-16T14:33:59.961Z,33.60
2022-10-16T14:36:29.078Z,33.71
2022-10-16T14:39:01.396Z,33.65
2022-10-16T14:41:29.219Z,33.76
2022-10-16T14:43:58.905Z,33.75
2022-10-16T14:46:31.912Z,34.28
2022-10-16T14:49:02.430Z,34.73
2022-10-16T14:51:30.470Z,34.91
2022-10-16T14:54:00.626Z,35.47
2022-10-16T14:56:33.544Z,35.32
2022-10-16T14:59:03.926Z,35.34
2022-10-16T15:01:31.608Z,35.41
2022-10-16T15:03:59.356Z,35.61
2022-10-16T15:06:27.181Z,35.70
2022-10-16T15:08:55.129Z,36.04
2022-10-16T15:11:23.019Z,36.15
2022-10-16T15:13:50.815Z,36.35
2022-10-16T15:16:23.626Z,36.57
2022-10-16T15:18:51.432Z,36.74
2022-10-16T15:21:27.385Z,37.04
2022-10-16T15:23:55.268Z,37.00
2022-10-16T15:26:23.274Z,37.30
2022-10-16T15:28:53.419Z,37.56
2022-10-16T15:31:23.470Z,37.79
2022-10-16T15:33:59.127Z,38.29
2022-10-16T15:36:28.647Z,38.61
2022-10-16T15:38:56.666Z,39.58
2022-10-16T15:41:24.607Z,40.12
2022-10-16T15:43:53.131Z,40.37
2022-10-16T15:46:23.813Z,40.13
2022-10-16T15:48:52.097Z,40.67
2022-10-16T15:51:20.047Z,41.62
2022-10-16T15:53:47.911Z,41.59
2022-10-16T15:56:15.891Z,41.48
2022-10-16T15:58:44.333Z,42.51
2022-10-16T16:01:12.745Z,42.25
2022-10-16T16:03:42.374Z,43.12
2022-10-16T16:06:14.827Z,42.97
2022-10-16T16:08:42.507Z,42.75
2022-10-16T16:11:11.871Z,43.53
2022-10-16T16:13:39.803Z,43.19
2022-10-16T16:16:09.414Z,43.47
2022-10-16T16:18:39.293Z,43.67
2022-10-16T16:21:08.721Z,44.35
2022-10-16T16:23:36.419Z,44.34
2022-10-16T16:26:08.528Z,44.40
2022-10-16T16:28:36.386Z,44.53
2022-10-16T16:31:04.281Z,44.65
2022-10-16T16:33:32.361Z,45.03
2022-10-16T16:36:00.798Z,45.09
2022-10-16T16:38:29.965Z,45.55
2022-10-16T16:40:57.766Z,46.10
2022-10-16T16:43:27.287Z,45.68
2022-10-16T16:45:56.411Z,46.09
2022-10-16T16:48:24.292Z,46.13
2022-10-16T16:50:52.143Z,45.90
2022-10-16T16:53:20.282Z,46.54
2022-10-16T16:55:49.451Z,46.14
2022-10-16T16:58:17.170Z,46.25
2022-10-16T17:00:56.524Z,46.55
2022-10-16T17:03:31.605Z,46.73
2022-10-16T17:05:59.516Z,46.88
2022-10-16T17:08:36.363Z,46.83
2022-10-16T17:14:21.300Z,47.02
2022-10-16T17:16:57.598Z,46.87
2022-10-16T17:30:44.841Z,47.66
2022-10-16T17:36:48.850Z,48.15
2022-10-16T17:39:21.831Z,48.19
2022-10-16T17:42:53.231Z,48.17
2022-10-16T17:45:46.278Z,48.49
2022-10-16T17:48:18.028Z,48.68
2022-10-16T17:50:49.086Z,49.04
2022-10-16T17:53:19.644Z,49.01
2022-10-16T17:55:47.368Z,49.04
2022-10-16T18:00:57.321Z,49.27
2022-10-16T18:03:49.663Z,49.39
2022-10-16T18:17:39.408Z,49.83
2022-10-16T18:20:10.572Z,50.24
2022-10-16T18:22:41.641Z,50.27
2022-10-16T18:25:15.596Z,50.50
2022-10-16T18:28:44.183Z,50.63
2022-10-16T18:32:23.955Z,50.98
2022-10-16T18:35:00.491Z,51.49
2022-10-16T18:37:35.454Z,51.52
2022-10-16T18:41:04.489Z,51.58
2022-10-16T18:43:39.904Z,51.71
2022-10-16T18:46:11.751Z,51.97
2022-10-16T18:49:02.804Z,51.85
2022-10-16T18:52:00.890Z,52.04
2022-10-16T18:56:32.321Z,52.28
2022-10-16T18:58:44.517Z,52.50
2022-10-16T19:01:23.234Z,53.03
2022-10-16T19:07:30.334Z,52.92
2022-10-16T19:10:07.424Z,52.93
2022-10-16T19:12:38.162Z,52.74
2022-10-16T19:15:07.812Z,52.88
2022-10-16T19:17:37.824Z,53.27
2022-10-16T19:20:06.713Z,52.97
2022-10-16T19:22:52.356Z,53.01
2022-10-16T19:25:22.979Z,52.97
2022-10-16T19:27:50.813Z,53.33
2022-10-16T19:30:18.929Z,53.08
2022-10-16T19:32:49.406Z,53.47
2022-10-16T19:35:17.313Z,53.38
2022-10-16T19:37:45.075Z,53.41
2022-10-16T19:40:14.752Z,53.30
2022-10-16T19:42:45.310Z,53.75
2022-10-16T19:45:14.099Z,53.64
2022-10-16T19:47:44.280Z,54.02
2022-10-16T19:50:12.331Z,54.06
2022-10-16T19:52:40.896Z,53.97
2022-10-16T19:55:09.526Z,53.87
2022-10-16T19:57:37.683Z,54.09
2022-10-16T20:00:08.203Z,54.29
2022-10-16T20:02:36.060Z,54.54
2022-10-16T20:05:04.246Z,54.78
2022-10-16T20:07:39.059Z,55.32
2022-10-16T20:10:08.403Z,55.20
2022-10-16T20:12:36.163Z,55.57
2022-10-16T20:15:05.013Z,55.56
2022-10-16T20:17:34.307Z,56.19
2022-10-16T20:20:02.174Z,56.21
2022-10-16T20:22:30.045Z,56.16
2022-10-16T20:24:57.800Z,56.13
2022-10-16T20:27:29.261Z,56.61
2022-10-16T20:29:57.191Z,56.60
2022-10-16T20:32:24.947Z,56.66
2022-10-16T20:34:54.135Z,56.77
2022-10-16T20:37:21.933Z,57.08
2022-10-16T20:39:49.701Z,57.26
2022-10-16T20:42:17.389Z,57.66
2022-10-16T20:44:47.947Z,57.87
2022-10-16T20:47:18.412Z,58.05
2022-10-16T20:49:46.218Z,58.03
2022-10-16T20:52:15.372Z,58.29
2022-10-16T20:54:45.827Z,58.37
2022-10-16T20:57:13.795Z,58.19
2022-10-16T20:59:41.823Z,58.31
2022-10-16T21:02:14.232Z,58.73
2022-10-16T21:04:42.458Z,58.70
2022-10-16T21:07:10.716Z,58.76
2022-10-16T21:09:40.702Z,58.46
2022-10-16T21:12:08.578Z,58.68
2022-10-16T21:14:39.432Z,58.57
2022-10-16T21:17:10.269Z,58.56
2022-10-16T21:19:38.115Z,59.03
2022-10-16T21:22:05.895Z,59.04
2022-10-16T21:24:33.705Z,59.03
2022-10-16T21:27:02.805Z,59.07
2022-10-16T21:29:30.689Z,59.01
2022-10-16T21:31:58.480Z,59.18
2022-10-16T21:34:26.279Z,59.25
2022-10-16T21:36:54.087Z,59.26
2022-10-16T21:39:22.066Z,59.42
2022-10-16T21:41:50.586Z,59.56
2022-10-16T21:44:20.474Z,59.62
2022-10-16T21:46:48.336Z,59.92
2022-10-16T21:49:17.681Z,59.69
2022-10-16T21:52:27.205Z,59.26
2022-10-16T21:55:00.529Z,60.24
2022-10-16T21:57:30.610Z,60.38
2022-10-16T22:00:01.350Z,60.30
2022-10-16T22:02:30.925Z,60.59
2022-10-16T22:04:58.715Z,60.21
2022-10-16T22:07:26.781Z,60.53
2022-10-16T22:09:54.747Z,60.70
2022-10-16T22:12:22.528Z,60.20
2022-10-16T22:14:50.321Z,60.72
2022-10-16T22:17:19.507Z,60.69
2022-10-16T22:19:47.258Z,60.36
2022-10-16T22:22:15.113Z,60.72
2022-10-16T22:24:42.878Z,60.99
2022-10-16T22:27:10.628Z,60.65
2022-10-16T22:29:38.394Z,60.42
2022-10-16T22:32:06.173Z,60.67
2022-10-16T22:34:35.306Z,60.53
2022-10-16T22:37:03.194Z,61.05
2022-10-16T22:39:30.868Z,61.16
2022-10-16T22:41:58.591Z,61.62
2022-10-16T22:44:26.344Z,61.48
2022-10-16T22:46:54.097Z,61.73
2022-10-16T22:49:21.901Z,61.88
2022-10-16T22:54:18.927Z,61.67
2022-10-16T22:56:46.616Z,61.71
2022-10-16T22:59:14.312Z,61.78
2022-10-16T23:01:42.324Z,61.75
2022-10-16T23:04:10.022Z,61.73
2022-10-16T23:06:37.774Z,61.89
2022-10-16T23:09:06.916Z,61.88
2022-10-16T23:16:50.330Z,61.92
2022-10-16T23:19:17.986Z,61.89
2022-10-16T23:21:45.949Z,62.15
2022-10-16T23:24:14.831Z,62.08
2022-10-16T23:26:42.473Z,61.70
2022-10-16T23:29:10.381Z,61.97
2022-10-16T23:31:38.122Z,61.73
2022-10-16T23:34:05.746Z,61.74
2022-10-16T23:36:33.456Z,61.64
2022-10-16T23:39:01.053Z,61.52
2022-10-16T23:41:30.142Z,61.56
2022-10-16T23:43:57.709Z,61.21
2022-10-16T23:48:57.866Z,61.20
2022-10-16T23:51:25.749Z,61.02
2022-10-16T23:53:53.558Z,61.14
2022-10-16T23:56:21.289Z,61.24
2022-10-16T23:58:50.221Z,61.04
